Time;durP1;ratioP1;P1;durP2;ratioP2;P2;SDS_P1;SDS_P2;PMS_P1;PMS_P2;Temp;Humidity;BMP_temperature;BMP_pressure;BME280_temperature;BME280_humidity;BME280_pressure;Samples;Min_cycle;Max_cycle;Signal;HPM_P1;HPM_P2
2024/02/16 00:02:01;;;;;;;9.10;4.32;;;13.70;58.60;;;;;;6297576;28;20047;-77
2024/02/16 00:05:07;;;;;;;12.07;5.20;;;13.50;58.70;;;;;;6281140;28;20129;-77
2024/02/16 00:08:09;;;;;;;20.98;4.32;;;13.40;59.00;;;;;;6295877;28;20488;-76
2024/02/16 00:11:11;;;;;;;13.18;4.97;;;13.40;59.20;;;;;;6307035;28;20115;-75
2024/02/16 00:14:11;;;;;;;10.82;5.45;;;13.40;59.20;;;;;;6307524;28;20027;-75
2024/02/16 00:17:12;;;;;;;11.98;5.10;;;13.40;59.20;;;;;;6305975;28;20099;-78
2024/02/16 00:20:14;;;;;;;12.55;5.13;;;13.40;59.30;;;;;;6306826;28;20115;-77
2024/02/16 00:23:15;;;;;;;12.00;4.72;;;13.40;59.40;;;;;;6323103;28;20093;-77
2024/02/16 00:26:16;;;;;;;12.50;4.55;;;13.50;59.50;;;;;;6297121;28;20096;-76
2024/02/16 00:29:20;;;;;;;14.50;5.57;;;13.50;59.30;;;;;;6323985;28;20012;-76
2024/02/16 00:32:26;;;;;;;13.32;5.68;;;13.50;59.20;;;;;;6304917;28;20019;-76
2024/02/16 00:35:26;;;;;;;11.23;5.18;;;13.50;59.10;;;;;;6297619;28;20036;-75
2024/02/16 00:38:29;;;;;;;14.13;6.50;;;13.40;59.00;;;;;;6304137;28;20093;-77
2024/02/16 00:41:30;;;;;;;16.23;5.70;;;13.40;58.90;;;;;;6271314;28;20036;-77
2024/02/16 00:44:30;;;;;;;13.43;5.85;;;13.40;58.70;;;;;;6307366;28;20124;-77
2024/02/16 00:47:33;;;;;;;14.10;6.05;;;13.40;58.70;;;;;;6301650;28;20566;-76
2024/02/16 00:50:34;;;;;;;11.73;5.68;;;13.40;58.70;;;;;;6299025;28;21330;-74
2024/02/16 00:53:35;;;;;;;12.68;5.10;;;13.40;58.70;;;;;;6307675;28;20020;-77
2024/02/16 00:56:36;;;;;;;12.88;5.93;;;13.40;58.60;;;;;;6294541;28;20086;-77
2024/02/16 00:59:39;;;;;;;13.52;6.05;;;13.40;58.60;;;;;;6300193;28;20020;-76
2024/02/16 01:02:39;;;;;;;13.65;6.15;;;13.30;58.50;;;;;;6260315;28;20112;-76
2024/02/16 01:05:40;;;;;;;18.63;6.38;;;13.30;58.60;;;;;;6290327;28;20446;-77
2024/02/16 01:08:44;;;;;;;20.55;6.30;;;13.30;58.50;;;;;;6290908;28;20050;-77
2024/02/16 01:11:45;;;;;;;16.20;5.50;;;13.20;58.50;;;;;;6306948;28;20115;-76
2024/02/16 01:14:46;;;;;;;13.40;5.93;;;13.20;58.40;;;;;;6272459;28;20021;-77
2024/02/16 01:17:48;;;;;;;15.65;6.10;;;13.20;58.30;;;;;;6288407;28;20170;-76
2024/02/16 01:20:50;;;;;;;14.77;5.80;;;13.20;58.30;;;;;;6305549;28;20038;-76
2024/02/16 01:23:51;;;;;;;12.57;5.18;;;13.10;58.20;;;;;;6278241;28;20103;-76
2024/02/16 01:26:51;;;;;;;10.07;5.35;;;13.10;58.10;;;;;;6306851;28;20416;-76
2024/02/16 01:29:52;;;;;;;13.75;5.80;;;13.10;58.20;;;;;;6302777;28;20024;-76
2024/02/16 01:32:53;;;;;;;10.68;5.82;;;13.00;58.20;;;;;;6306686;28;20859;-77
2024/02/16 01:35:54;;;;;;;12.98;5.95;;;13.00;58.10;;;;;;6307729;28;20081;-75
2024/02/16 01:38:55;;;;;;;15.90;6.68;;;13.00;58.10;;;;;;6304623;28;20123;-76
2024/02/16 01:41:56;;;;;;;13.02;6.47;;;13.00;58.10;;;;;;6296303;28;20047;-77
2024/02/16 01:44:57;;;;;;;9.63;4.73;;;13.00;58.00;;;;;;6289764;28;20172;-79
2024/02/16 01:47:59;;;;;;;17.35;6.53;;;13.00;58.00;;;;;;6295421;28;20399;-76
2024/02/16 01:51:01;;;;;;;12.52;5.60;;;13.00;58.00;;;;;;6293181;28;20033;-77
2024/02/16 01:54:03;;;;;;;12.70;6.30;;;13.10;57.90;;;;;;6305709;28;20528;-77
2024/02/16 01:57:05;;;;;;;17.42;6.28;;;13.10;57.80;;;;;;6273099;28;20024;-77
2024/02/16 02:00:08;;;;;;;18.38;6.70;;;13.10;57.70;;;;;;6293491;28;20565;-77
2024/02/16 02:03:10;;;;;;;13.50;5.68;;;13.10;57.60;;;;;;6276750;28;20095;-76
2024/02/16 02:06:12;;;;;;;17.48;6.95;;;13.10;57.60;;;;;;6306075;28;20493;-77
2024/02/16 02:09:13;;;;;;;15.60;6.38;;;13.10;57.60;;;;;;6306784;28;20081;-73
2024/02/16 02:12:14;;;;;;;16.83;5.75;;;13.10;57.50;;;;;;6269610;28;20032;-76
2024/02/16 02:15:15;;;;;;;14.98;6.97;;;13.10;57.50;;;;;;6303205;28;20107;-76
2024/02/16 02:18:16;;;;;;;17.30;6.45;;;13.10;57.50;;;;;;6306622;28;20130;-76
2024/02/16 02:21:17;;;;;;;15.10;5.55;;;13.20;57.40;;;;;;6293379;28;20498;-77
2024/02/16 02:24:19;;;;;;;16.63;6.95;;;13.10;57.40;;;;;;6284223;28;20131;-76
2024/02/16 02:27:23;;;;;;;14.43;6.10;;;13.10;57.30;;;;;;6299286;28;20025;-76
2024/02/16 02:30:24;;;;;;;13.07;5.93;;;13.10;57.30;;;;;;6295702;28;20008;-77
2024/02/16 02:33:25;;;;;;;11.75;5.68;;;13.20;57.30;;;;;;6264704;28;20534;-77
2024/02/16 02:36:26;;;;;;;17.45;6.57;;;13.20;57.30;;;;;;6303016;28;20016;-77
2024/02/16 02:39:27;;;;;;;16.65;6.53;;;13.30;57.30;;;;;;6290128;28;20508;-76
2024/02/16 02:42:28;;;;;;;13.70;5.78;;;13.20;57.30;;;;;;6305049;28;20139;-77
2024/02/16 02:45:29;;;;;;;29.08;7.22;;;13.20;57.20;;;;;;6305434;28;20131;-76
2024/02/16 02:48:30;;;;;;;13.25;6.20;;;13.20;57.20;;;;;;6307251;28;20028;-77
2024/02/16 02:51:32;;;;;;;26.15;8.77;;;13.20;57.10;;;;;;6286414;28;20125;-78
2024/02/16 02:54:35;;;;;;;18.65;7.22;;;13.20;57.10;;;;;;6298952;28;20012;-77
2024/02/16 02:57:36;;;;;;;17.45;7.25;;;13.20;57.00;;;;;;6288890;28;20032;-77
2024/02/16 03:00:37;;;;;;;16.35;6.15;;;13.30;57.10;;;;;;6289066;28;20054;-76
2024/02/16 03:03:40;;;;;;;16.45;6.57;;;13.30;57.00;;;;;;6311777;28;20031;-78
2024/02/16 03:06:41;;;;;;;14.48;6.20;;;13.30;57.00;;;;;;6298182;28;20028;-78
2024/02/16 03:09:43;;;;;;;17.95;7.47;;;13.20;57.00;;;;;;6310470;28;20027;-76
2024/02/16 03:12:44;;;;;;;12.65;5.88;;;13.20;57.10;;;;;;6292015;28;20061;-77
2024/02/16 03:15:45;;;;;;;21.05;6.95;;;13.20;57.20;;;;;;6293156;28;20464;-77
2024/02/16 03:18:46;;;;;;;17.77;7.13;;;13.10;57.20;;;;;;6309289;28;20088;-77
2024/02/16 03:21:48;;;;;;;12.02;6.38;;;13.10;57.30;;;;;;6309947;28;20185;-78
2024/02/16 03:24:50;;;;;;;17.42;6.22;;;13.10;57.30;;;;;;6305482;28;20038;-77
2024/02/16 03:27:53;;;;;;;13.23;6.15;;;13.10;57.30;;;;;;6308802;28;20034;-76
2024/02/16 03:30:53;;;;;;;14.10;6.43;;;13.10;57.30;;;;;;6306165;28;20172;-77
2024/02/16 03:33:55;;;;;;;18.83;6.65;;;13.10;57.30;;;;;;6284011;28;20021;-77
2024/02/16 03:36:55;;;;;;;21.48;7.78;;;13.10;57.30;;;;;;6288015;28;20109;-77
2024/02/16 03:39:57;;;;;;;17.45;7.00;;;13.10;57.30;;;;;;6309600;28;20055;-76
2024/02/16 03:42:58;;;;;;;11.18;5.88;;;13.10;57.30;;;;;;6304970;28;20065;-75
2024/02/16 03:45:59;;;;;;;17.75;6.28;;;13.10;57.20;;;;;;6292446;28;20040;-77
2024/02/16 03:49:01;;;;;;;14.02;5.50;;;13.10;57.20;;;;;;6309024;28;20054;-75
2024/02/16 03:52:04;;;;;;;18.25;6.65;;;13.10;57.20;;;;;;6306369;28;20032;-76
2024/02/16 03:55:05;;;;;;;16.80;6.40;;;13.20;57.20;;;;;;6294621;28;20032;-76
2024/02/16 03:58:06;;;;;;;23.15;6.45;;;13.10;57.20;;;;;;6309769;28;20031;-75
2024/02/16 04:01:07;;;;;;;16.05;6.65;;;13.20;57.20;;;;;;6289600;28;20408;-77
2024/02/16 04:04:08;;;;;;;15.63;5.57;;;13.10;57.10;;;;;;6300157;28;20509;-77
2024/02/16 04:07:12;;;;;;;14.38;6.57;;;13.10;57.20;;;;;;6305594;28;20039;-76
2024/02/16 04:10:12;;;;;;;12.15;5.95;;;13.10;57.30;;;;;;6306630;28;20036;-75
2024/02/16 04:13:13;;;;;;;14.65;6.60;;;13.00;57.30;;;;;;6302629;28;20445;-76
2024/02/16 04:16:14;;;;;;;22.92;6.68;;;13.00;57.50;;;;;;6294863;28;20149;-77
2024/02/16 04:19:15;;;;;;;16.40;6.43;;;12.90;57.50;;;;;;6308365;28;20036;-77
2024/02/16 04:22:16;;;;;;;11.80;5.82;;;12.90;57.50;;;;;;6288766;28;20106;-76
2024/02/16 04:25:16;;;;;;;17.92;6.70;;;12.90;57.60;;;;;;6290980;28;20104;-77
2024/02/16 04:28:18;;;;;;;17.08;5.95;;;12.90;57.70;;;;;;6303417;28;20114;-75
2024/02/16 04:31:20;;;;;;;14.77;5.68;;;12.90;57.70;;;;;;6290936;28;20078;-76
2024/02/16 04:34:22;;;;;;;14.02;5.97;;;12.90;57.70;;;;;;6308653;28;20023;-76
2024/02/16 04:37:27;;;;;;;12.13;4.88;;;12.90;58.20;;;;;;6289452;28;20025;-77
2024/02/16 04:40:28;;;;;;;12.38;6.15;;;13.00;57.60;;;;;;6283773;28;20183;-76
2024/02/16 04:43:30;;;;;;;15.35;6.15;;;13.00;57.50;;;;;;6300593;28;20095;-76
2024/02/16 04:46:32;;;;;;;15.75;5.97;;;13.10;57.50;;;;;;6290885;28;20181;-77
2024/02/16 04:49:33;;;;;;;10.80;6.13;;;13.00;57.50;;;;;;6272181;28;20041;-76
2024/02/16 04:52:35;;;;;;;16.38;5.95;;;13.00;57.60;;;;;;6298279;28;20043;-77
2024/02/16 04:55:36;;;;;;;13.98;5.88;;;13.00;57.60;;;;;;6296511;28;20063;-76
2024/02/16 04:58:41;;;;;;;15.95;6.47;;;13.00;57.60;;;;;;6303166;28;20024;-76
2024/02/16 05:01:45;;;;;;;14.63;6.30;;;13.00;57.60;;;;;;6304574;28;20043;-77
2024/02/16 05:04:48;;;;;;;17.13;6.45;;;13.00;57.60;;;;;;6296378;28;20078;-78
2024/02/16 05:07:49;;;;;;;13.60;5.45;;;13.00;57.60;;;;;;6289606;28;20024;-76
2024/02/16 05:10:52;;;;;;;15.25;5.90;;;12.90;57.60;;;;;;6306342;28;20060;-76
2024/02/16 05:13:53;;;;;;;10.57;5.30;;;12.90;57.60;;;;;;6301711;28;20066;-76
2024/02/16 05:16:55;;;;;;;15.88;5.53;;;12.90;57.70;;;;;;6307576;28;20273;-77
2024/02/16 05:19:56;;;;;;;13.65;5.95;;;12.90;57.70;;;;;;6290473;28;20032;-77
2024/02/16 05:22:57;;;;;;;15.95;6.38;;;12.90;57.80;;;;;;6297140;28;20167;-75
2024/02/16 05:26:00;;;;;;;14.20;5.93;;;12.90;57.80;;;;;;6290536;28;20040;-78
2024/02/16 05:29:02;;;;;;;12.55;5.30;;;12.90;57.80;;;;;;6306534;28;20093;-76
2024/02/16 05:32:04;;;;;;;10.70;5.43;;;12.90;57.80;;;;;;6297139;28;20484;-77
2024/02/16 05:35:14;;;;;;;13.63;6.50;;;12.90;57.90;;;;;;6304460;28;20024;-77
2024/02/16 05:38:31;;;;;;;14.55;5.63;;;12.80;58.00;;;;;;6303184;28;20017;-77
2024/02/16 05:41:33;;;;;;;11.43;5.63;;;12.80;58.00;;;;;;6282075;28;20020;-76
2024/02/16 05:44:34;;;;;;;11.85;5.28;;;12.80;58.10;;;;;;6282584;28;20016;-77
2024/02/16 05:47:38;;;;;;;13.95;6.18;;;12.80;58.10;;;;;;6282263;28;20115;-78
2024/02/16 05:50:39;;;;;;;15.02;6.28;;;12.70;58.10;;;;;;6281765;28;20065;-76
2024/02/16 05:53:41;;;;;;;14.68;6.63;;;12.70;58.20;;;;;;6299959;28;20350;-77
2024/02/16 05:56:42;;;;;;;18.30;6.60;;;12.70;58.20;;;;;;6298187;28;20399;-78
2024/02/16 05:59:47;;;;;;;12.52;5.60;;;12.70;58.20;;;;;;6297768;28;20378;-78
2024/02/16 06:02:48;;;;;;;16.00;5.88;;;12.70;58.30;;;;;;6282906;28;20144;-77
2024/02/16 06:05:48;;;;;;;15.52;6.30;;;12.70;58.20;;;;;;6296493;28;20040;-78
2024/02/16 06:08:51;;;;;;;11.55;5.38;;;12.80;58.30;;;;;;6298719;28;20096;-76
2024/02/16 06:11:52;;;;;;;23.27;6.13;;;12.70;58.30;;;;;;6280152;28;20042;-76
2024/02/16 06:14:54;;;;;;;13.75;5.75;;;12.70;58.20;;;;;;6280575;28;20050;-76
2024/02/16 06:18:00;;;;;;;8.80;5.15;;;12.70;58.20;;;;;;6284355;28;20034;-77
2024/02/16 06:21:01;;;;;;;16.77;6.85;;;12.70;58.30;;;;;;6295615;28;20028;-78
2024/02/16 06:24:02;;;;;;;18.00;6.32;;;12.70;58.20;;;;;;6303825;28;20039;-78
2024/02/16 06:27:04;;;;;;;12.65;5.85;;;12.70;58.30;;;;;;6297227;28;20036;-77
2024/02/16 06:30:12;;;;;;;14.57;5.57;;;12.70;58.40;;;;;;6302288;28;20084;-77
2024/02/16 06:33:13;;;;;;;;;;;12.60;58.50;;;;;;6304712;28;20421;-78
2024/02/16 06:36:14;;;;;;;25.45;6.05;;;12.70;58.50;;;;;;6308015;28;19999;-78
2024/02/16 06:39:18;;;;;;;12.07;5.45;;;12.60;58.40;;;;;;6311009;28;20111;-79
2024/02/16 06:42:19;;;;;;;15.52;6.65;;;12.60;58.50;;;;;;6298040;28;20676;-78
2024/02/16 06:45:20;;;;;;;11.85;5.60;;;12.60;58.50;;;;;;6298306;28;20028;-78
2024/02/16 06:48:22;;;;;;;11.25;5.82;;;12.60;58.60;;;;;;6313414;28;20020;-78
2024/02/16 06:51:26;;;;;;;13.10;6.00;;;12.60;58.70;;;;;;6286331;28;20361;-78
2024/02/16 06:54:27;;;;;;;18.70;6.65;;;12.60;58.60;;;;;;6298763;28;20075;-77
2024/02/16 06:57:31;;;;;;;15.55;5.90;;;12.60;58.60;;;;;;6306598;28;20031;-76
2024/02/16 07:00:35;;;;;;;14.40;6.05;;;12.70;58.60;;;;;;6299769;28;20049;-79
2024/02/16 07:03:37;;;;;;;13.10;5.25;;;12.80;58.70;;;;;;6307331;28;20028;-78
2024/02/16 07:06:38;;;;;;;13.85;6.55;;;12.80;58.60;;;;;;6287316;28;20170;-77
2024/02/16 07:09:39;;;;;;;12.32;5.45;;;12.80;58.50;;;;;;6308670;28;20133;-77
2024/02/16 07:12:40;;;;;;;20.33;5.93;;;12.80;58.40;;;;;;6296493;28;20024;-77
2024/02/16 07:15:41;;;;;;;12.35;6.10;;;12.90;58.30;;;;;;6273140;28;20016;-78
2024/02/16 07:18:42;;;;;;;14.20;6.32;;;12.90;58.30;;;;;;6310501;28;21417;-77
2024/02/16 07:21:44;;;;;;;16.35;6.30;;;13.00;58.40;;;;;;6309313;28;20107;-78
2024/02/16 07:24:45;;;;;;;14.85;7.00;;;13.10;58.30;;;;;;6296741;28;20099;-79
2024/02/16 07:27:46;;;;;;;13.57;6.28;;;13.10;58.20;;;;;;6296541;28;20437;-76
2024/02/16 07:30:47;;;;;;;16.20;5.60;;;13.20;58.20;;;;;;6306176;28;20164;-76
2024/02/16 07:33:48;;;;;;;15.65;5.68;;;13.20;58.10;;;;;;6294049;28;20135;-77
2024/02/16 07:36:49;;;;;;;15.43;6.32;;;13.20;58.00;;;;;;6284732;28;20110;-78
2024/02/16 07:39:51;;;;;;;11.57;5.80;;;13.30;58.00;;;;;;6303699;28;20081;-76
2024/02/16 07:42:52;;;;;;;15.32;6.85;;;13.30;57.90;;;;;;6305541;28;20103;-78
2024/02/16 07:45:54;;;;;;;15.98;6.43;;;13.40;57.80;;;;;;6301372;28;20482;-76
2024/02/16 07:48:55;;;;;;;22.38;5.97;;;13.40;57.70;;;;;;6311374;28;20070;-78
2024/02/16 07:51:57;;;;;;;24.80;6.82;;;13.40;57.70;;;;;;6308920;28;20032;-78
2024/02/16 07:55:01;;;;;;;14.40;6.60;;;13.40;57.60;;;;;;6292531;28;20043;-77
2024/02/16 07:58:04;;;;;;;17.05;6.95;;;13.40;57.60;;;;;;6301074;28;20430;-77
2024/02/16 08:01:06;;;;;;;19.35;6.68;;;13.50;57.60;;;;;;6325584;28;20024;-76
2024/02/16 08:04:08;;;;;;;17.27;7.10;;;13.50;58.10;;;;;;6309274;28;20075;-76
2024/02/16 08:07:16;;;;;;;26.55;8.18;;;13.50;57.30;;;;;;6284355;28;20489;-82
2024/02/16 08:10:25;;;;;;;;;;;13.60;57.30;;;;;;6280554;28;20039;-77
2024/02/16 08:13:26;;;;;;;19.10;7.13;;;13.70;57.10;;;;;;6288276;28;19908;-76
2024/02/16 08:16:28;;;;;;;28.17;6.45;;;13.70;56.90;;;;;;6282984;28;20056;-76
2024/02/16 08:19:36;;;;;;;15.95;6.40;;;13.80;56.90;;;;;;6295790;28;20120;-77
2024/02/16 08:22:38;;;;;;;15.73;6.30;;;13.80;56.70;;;;;;6308322;28;20056;-78
2024/02/16 08:25:39;;;;;;;14.13;5.32;;;13.90;56.60;;;;;;6286304;28;20033;-77
2024/02/16 08:28:45;;;;;;;15.20;6.20;;;13.90;56.40;;;;;;6299722;28;20016;-78
2024/02/16 08:31:53;;;;;;;24.52;6.55;;;14.00;56.40;;;;;;6283155;28;20441;-78
2024/02/16 08:34:55;;;;;;;15.10;6.53;;;14.10;56.30;;;;;;6301357;28;20077;-78
2024/02/16 08:37:56;;;;;;;16.73;7.65;;;14.10;56.10;;;;;;6306583;28;20016;-77
2024/02/16 08:40:59;;;;;;;11.15;6.80;;;14.20;56.00;;;;;;6301272;28;20028;-75
2024/02/16 08:44:00;;;;;;;19.05;6.00;;;14.20;55.90;;;;;;6306327;28;20036;-76
2024/02/16 08:47:04;;;;;;;15.32;5.85;;;14.30;55.80;;;;;;6295054;28;20051;-77
2024/02/16 08:50:06;;;;;;;11.80;6.22;;;14.30;55.70;;;;;;6298894;28;20082;-79
2024/02/16 08:53:10;;;;;;;14.68;5.28;;;14.30;55.70;;;;;;6307689;28;20079;-78
2024/02/16 08:56:12;;;;;;;21.58;6.60;;;14.40;55.80;;;;;;6286393;28;20167;-76
2024/02/16 08:59:13;;;;;;;20.33;6.88;;;14.50;55.60;;;;;;6294957;28;20050;-76
2024/02/16 09:02:14;;;;;;;18.48;6.88;;;14.60;55.50;;;;;;6294036;28;20029;-78
2024/02/16 09:05:15;;;;;;;21.02;6.28;;;14.70;55.20;;;;;;6299365;28;20036;-80
2024/02/16 09:08:16;;;;;;;18.65;5.97;;;14.80;55.10;;;;;;6274371;28;20009;-76
2024/02/16 09:11:17;;;;;;;16.23;6.78;;;14.70;55.00;;;;;;6299511;28;20455;-77
2024/02/16 09:14:18;;;;;;;16.00;6.63;;;14.80;55.00;;;;;;6287982;28;20111;-78
2024/02/16 09:17:20;;;;;;;18.45;7.85;;;14.90;54.90;;;;;;6268694;28;20160;-77
2024/02/16 09:20:23;;;;;;;18.67;6.82;;;14.80;54.80;;;;;;6300644;28;20116;-77
2024/02/16 09:23:23;;;;;;;19.15;6.63;;;14.90;54.90;;;;;;6294407;28;20432;-78
2024/02/16 09:26:29;;;;;;;12.18;6.63;;;15.00;54.80;;;;;;6305568;28;20545;-78
2024/02/16 09:29:31;;;;;;;16.02;7.60;;;15.20;54.70;;;;;;6300745;28;20090;-78
2024/02/16 09:32:32;;;;;;;13.52;6.40;;;15.20;54.60;;;;;;6306488;28;20117;-78
2024/02/16 09:35:36;;;;;;;17.08;7.70;;;15.30;54.30;;;;;;6288935;28;20024;-77
2024/02/16 09:38:37;;;;;;;15.60;6.97;;;15.40;54.20;;;;;;6306813;28;20023;-78
2024/02/16 09:41:43;;;;;;;27.15;8.38;;;15.40;54.10;;;;;;6294511;28;20020;-77
2024/02/16 09:44:48;;;;;;;18.80;8.18;;;15.50;54.10;;;;;;6305817;28;20063;-77
2024/02/16 09:47:52;;;;;;;14.45;7.22;;;15.50;54.10;;;;;;6285992;28;20032;-79
2024/02/16 09:50:59;;;;;;;25.77;8.82;;;15.60;53.90;;;;;;6298464;28;20072;-77
2024/02/16 09:54:02;;;;;;;20.92;8.95;;;15.70;53.80;;;;;;6272518;28;20429;-78
2024/02/16 09:57:05;;;;;;;20.30;8.75;;;15.70;53.80;;;;;;6284119;28;20109;-77
2024/02/16 10:00:07;;;;;;;19.58;8.13;;;15.90;53.70;;;;;;6295730;28;20020;-78
2024/02/16 10:03:27;;;;;;;20.57;8.43;;;16.00;53.60;;;;;;6305680;28;20356;-78
2024/02/16 10:06:28;;;;;;;18.00;8.07;;;16.10;53.40;;;;;;6300453;28;20036;-78
2024/02/16 10:09:29;;;;;;;20.67;8.98;;;16.20;53.20;;;;;;6305095;28;20117;-77
2024/02/16 10:12:30;;;;;;;23.58;8.90;;;16.30;53.00;;;;;;6297290;28;20035;-77
2024/02/16 10:15:32;;;;;;;25.90;8.52;;;16.30;52.90;;;;;;6306018;28;20028;-76
2024/02/16 10:18:34;;;;;;;32.33;9.85;;;16.50;52.90;;;;;;6300637;28;20048;-77
2024/02/16 10:21:35;;;;;;;21.17;8.18;;;16.60;52.70;;;;;;6305282;28;20395;-76
2024/02/16 10:24:38;;;;;;;24.33;9.10;;;16.80;52.40;;;;;;6283356;28;20051;-78
2024/02/16 10:27:41;;;;;;;21.52;9.02;;;16.90;52.00;;;;;;6304403;28;20463;-79
2024/02/16 10:30:43;;;;;;;22.88;9.13;;;17.00;51.90;;;;;;6289910;28;20131;-78
2024/02/16 10:33:44;;;;;;;21.77;9.00;;;17.20;51.70;;;;;;6303143;28;20091;-78
2024/02/16 10:36:46;;;;;;;16.95;8.30;;;17.40;51.50;;;;;;6291800;28;20144;-77
2024/02/16 10:39:49;;;;;;;21.83;9.65;;;17.50;51.20;;;;;;6298196;28;20064;-80
2024/02/16 10:42:52;;;;;;;28.55;9.10;;;17.60;50.70;;;;;;6278226;28;20066;-80
2024/02/16 10:45:56;;;;;;;21.90;8.27;;;17.70;50.60;;;;;;6299745;28;20044;-80
2024/02/16 10:48:59;;;;;;;20.60;8.80;;;17.80;50.60;;;;;;6310021;28;20024;-81
2024/02/16 10:52:01;;;;;;;25.17;8.15;;;17.80;50.10;;;;;;6290318;28;20021;-80
2024/02/16 10:55:04;;;;;;;17.48;8.25;;;17.90;50.20;;;;;;6265841;28;20043;-81
2024/02/16 10:58:08;;;;;;;16.92;7.90;;;17.90;50.10;;;;;;6307557;28;20307;-79
2024/02/16 11:01:13;;;;;;;17.05;7.60;;;18.00;50.10;;;;;;6294080;28;20139;-80
2024/02/16 11:04:16;;;;;;;14.30;7.30;;;18.10;50.00;;;;;;6302154;28;20463;-80
2024/02/16 11:07:18;;;;;;;18.95;8.65;;;18.20;49.80;;;;;;6286491;28;20119;-81
2024/02/16 11:10:19;;;;;;;16.77;8.43;;;18.30;49.60;;;;;;6297404;28;20440;-81
2024/02/16 11:13:34;;;;;;;21.10;9.27;;;18.40;49.60;;;;;;6289520;28;20024;-79
2024/02/16 11:16:44;;;;;;;18.45;8.27;;;18.60;49.30;;;;;;6273683;28;20028;-78
2024/02/16 11:19:47;;;;;;;16.70;7.97;;;18.80;48.90;;;;;;6286960;28;20068;-81
2024/02/16 11:22:51;;;;;;;20.17;8.40;;;19.00;48.70;;;;;;6292710;28;20512;-78
2024/02/16 11:25:54;;;;;;;15.70;7.15;;;19.20;48.40;;;;;;6288767;28;20050;-80
2024/02/16 11:28:55;;;;;;;17.50;7.45;;;19.50;48.10;;;;;;6313378;28;20012;-80
2024/02/16 11:31:58;;;;;;;23.58;8.88;;;19.80;47.60;;;;;;6302505;28;20429;-81
2024/02/16 11:35:08;;;;;;;23.67;7.32;;;20.00;47.00;;;;;;6294624;28;20106;-80
2024/02/16 11:38:09;;;;;;;19.08;7.30;;;20.20;46.50;;;;;;6284437;28;20039;-77
2024/02/16 11:41:10;;;;;;;16.75;6.78;;;20.60;45.90;;;;;;6290583;28;20042;-79
2024/02/16 11:44:13;;;;;;;16.17;7.20;;;20.90;45.20;;;;;;6310372;28;20428;-79
2024/02/16 11:47:25;;;;;;;16.80;6.82;;;21.20;44.50;;;;;;6299502;28;20514;-79
2024/02/16 11:50:26;;;;;;;21.02;7.68;;;21.50;44.00;;;;;;6299593;28;20115;-79
2024/02/16 11:53:32;;;;;;;17.10;7.22;;;21.80;43.60;;;;;;6302844;28;20077;-79
2024/02/16 11:56:32;;;;;;;19.17;7.30;;;22.00;43.40;;;;;;6284938;28;20012;-80
2024/02/16 11:59:35;;;;;;;15.27;6.55;;;22.20;42.90;;;;;;6310950;28;20047;-79
2024/02/16 12:02:36;;;;;;;19.58;7.45;;;22.60;42.70;;;;;;6311230;28;20024;-81
2024/02/16 12:05:39;;;;;;;10.30;5.55;;;22.60;42.70;;;;;;6290866;28;20051;-79
2024/02/16 12:08:40;;;;;;;14.85;6.32;;;22.60;42.10;;;;;;6308369;28;20024;-82
2024/02/16 12:11:41;;;;;;;21.33;4.32;;;22.70;41.90;;;;;;6299681;28;20501;-80
2024/02/16 12:14:43;;;;;;;17.67;5.07;;;22.70;41.50;;;;;;6308156;28;20035;-81
2024/02/16 12:17:43;;;;;;;13.43;4.30;;;22.90;41.50;;;;;;6284757;28;20123;-81
2024/02/16 12:20:48;;;;;;;9.40;4.57;;;23.10;41.00;;;;;;6308680;28;20125;-80
2024/02/16 12:23:49;;;;;;;10.95;4.68;;;23.30;40.60;;;;;;6307161;28;20040;-81
2024/02/16 12:26:51;;;;;;;7.82;4.10;;;23.50;40.30;;;;;;6288100;28;20117;-82
2024/02/16 12:29:53;;;;;;;11.90;4.43;;;23.50;40.10;;;;;;6291657;28;20131;-82
2024/02/16 12:32:54;;;;;;;15.00;4.47;;;23.50;39.70;;;;;;6298823;28;20253;-81
2024/02/16 12:35:55;;;;;;;15.13;4.75;;;23.50;39.50;;;;;;6287114;28;20074;-82
2024/02/16 12:38:57;;;;;;;10.98;3.90;;;23.50;39.70;;;;;;6297480;28;20125;-82
2024/02/16 12:41:58;;;;;;;10.00;3.83;;;23.60;39.60;;;;;;6309941;28;20065;-81
2024/02/16 12:44:59;;;;;;;12.98;4.50;;;23.80;40.20;;;;;;6295093;28;20053;-81
2024/02/16 12:48:01;;;;;;;14.23;4.13;;;24.10;39.10;;;;;;6291115;28;20035;-82
2024/02/16 12:51:03;;;;;;;22.55;4.50;;;24.20;38.60;;;;;;6300990;28;20100;-81
2024/02/16 12:54:04;;;;;;;8.40;3.67;;;23.80;38.80;;;;;;6308198;28;20337;-80
2024/02/16 12:57:12;;;;;;;10.23;4.00;;;23.20;39.20;;;;;;6291912;28;20034;-82
2024/02/16 13:00:14;;;;;;;14.73;3.35;;;22.90;39.90;;;;;;6308399;28;20024;-82
2024/02/16 13:03:15;;;;;;;13.93;3.70;;;22.60;40.20;;;;;;6301757;28;20526;-82
2024/02/16 13:06:16;;;;;;;8.98;4.03;;;22.40;40.50;;;;;;6292441;28;20122;-81
2024/02/16 13:09:17;;;;;;;10.63;4.47;;;22.10;40.50;;;;;;6298558;28;20148;-82
2024/02/16 13:12:22;;;;;;;12.57;3.65;;;21.90;40.80;;;;;;6325785;28;20030;-80
2024/02/16 13:15:23;;;;;;;8.90;4.32;;;21.60;41.20;;;;;;6309368;28;20012;-80
2024/02/16 13:18:25;;;;;;;9.48;3.63;;;21.60;41.50;;;;;;6293581;28;20166;-82
2024/02/16 13:21:28;;;;;;;9.18;3.75;;;21.50;41.60;;;;;;6290635;28;20048;-81
2024/02/16 13:24:31;;;;;;;7.70;3.70;;;21.40;41.50;;;;;;6291009;28;20023;-80
2024/02/16 13:27:35;;;;;;;13.90;3.55;;;21.40;41.50;;;;;;6290842;28;20024;-82
2024/02/16 13:30:37;;;;;;;12.07;4.93;;;21.30;41.40;;;;;;6310007;28;20023;-82
2024/02/16 13:33:38;;;;;;;13.48;4.60;;;21.20;41.30;;;;;;6305965;28;20027;-81
2024/02/16 13:36:39;;;;;;;12.70;3.35;;;21.20;41.50;;;;;;6290922;28;20035;-80
2024/02/16 13:39:40;;;;;;;11.15;3.08;;;21.20;41.20;;;;;;6272679;28;20540;-81
2024/02/16 13:42:42;;;;;;;8.32;3.28;;;21.20;40.80;;;;;;6305832;28;20012;-81
2024/02/16 13:45:53;;;;;;;9.73;3.40;;;21.20;40.60;;;;;;6298594;28;20036;-80
2024/02/16 13:48:56;;;;;;;16.55;3.90;;;21.20;40.20;;;;;;6287529;28;20016;-81
2024/02/16 13:51:58;;;;;;;7.35;2.70;;;21.20;39.90;;;;;;6309574;28;20346;-81
2024/02/16 13:54:59;;;;;;;7.68;2.88;;;21.20;40.20;;;;;;6310364;28;20024;-81
2024/02/16 13:58:00;;;;;;;8.48;2.70;;;21.20;39.30;;;;;;6308370;28;20074;-80
2024/02/16 14:01:03;;;;;;;13.65;4.13;;;21.20;39.10;;;;;;6286660;28;20124;-82
2024/02/16 14:04:04;;;;;;;10.40;3.20;;;21.20;38.90;;;;;;6296662;28;20042;-83
2024/02/16 14:07:07;;;;;;;9.00;3.00;;;21.20;39.10;;;;;;6298439;28;20036;-83
2024/02/16 14:10:08;;;;;;;10.35;2.80;;;21.20;38.60;;;;;;6266657;28;20449;-81
2024/02/16 14:13:13;;;;;;;10.02;2.67;;;21.20;38.60;;;;;;6298768;28;20544;-80
2024/02/16 14:16:15;;;;;;;7.93;3.55;;;21.10;38.70;;;;;;6308662;28;20145;-81
2024/02/16 14:19:16;;;;;;;12.02;2.85;;;21.20;38.80;;;;;;6300577;28;20020;-81
2024/02/16 14:22:17;;;;;;;3.60;2.13;;;21.20;38.60;;;;;;6292521;28;20032;-81
2024/02/16 14:25:19;;;;;;;7.05;2.92;;;21.30;38.50;;;;;;6287952;28;20063;-82
2024/02/16 14:28:19;;;;;;;5.45;2.28;;;21.20;38.60;;;;;;6302060;28;20096;-80
2024/02/16 14:31:21;;;;;;;11.82;4.15;;;21.20;38.60;;;;;;6290156;28;20021;-81
2024/02/16 14:34:25;;;;;;;12.93;4.55;;;21.30;38.50;;;;;;6298983;28;20052;-82
2024/02/16 14:37:28;;;;;;;7.10;3.03;;;21.30;38.50;;;;;;6302330;28;20036;-80
2024/02/16 14:40:29;;;;;;;11.40;2.55;;;21.20;38.50;;;;;;6304866;28;20016;-80
2024/02/16 14:43:30;;;;;;;8.10;3.20;;;21.10;38.70;;;;;;6302227;28;20020;-80
2024/02/16 14:46:32;;;;;;;4.60;2.50;;;21.10;39.00;;;;;;6297461;28;20037;-81
2024/02/16 14:49:32;;;;;;;11.43;4.47;;;21.00;39.00;;;;;;6282742;28;20046;-81
2024/02/16 14:52:35;;;;;;;7.07;3.22;;;21.00;39.20;;;;;;6292881;28;20039;-81
2024/02/16 14:55:36;;;;;;;5.57;2.95;;;21.00;39.50;;;;;;6311770;28;20043;-83
2024/02/16 14:58:37;;;;;;;7.70;3.10;;;21.00;39.60;;;;;;6309242;28;20028;-83
2024/02/16 15:01:37;;;;;;;16.55;3.60;;;21.00;39.70;;;;;;6305638;28;20021;-82
2024/02/16 15:04:38;;;;;;;10.75;2.97;;;20.90;39.50;;;;;;6298999;28;20025;-81
2024/02/16 15:07:40;;;;;;;7.70;2.88;;;20.90;39.50;;;;;;6288720;28;20040;-81
2024/02/16 15:10:42;;;;;;;25.60;3.33;;;20.80;39.60;;;;;;6290637;28;20547;-81
2024/02/16 15:13:43;;;;;;;13.43;3.45;;;20.80;39.90;;;;;;6301159;28;20021;-80
2024/02/16 15:16:45;;;;;;;9.30;2.65;;;20.70;40.00;;;;;;6286768;28;20032;-81
2024/02/16 15:19:47;;;;;;;8.57;2.30;;;20.70;40.10;;;;;;6299076;28;20028;-81
2024/02/16 15:22:49;;;;;;;4.88;2.40;;;20.70;40.20;;;;;;6311424;28;20040;-81
2024/02/16 15:25:52;;;;;;;6.68;2.65;;;20.70;40.30;;;;;;6310187;28;20070;-81
2024/02/16 15:28:54;;;;;;;7.72;2.67;;;20.70;40.40;;;;;;6309691;28;20049;-81
2024/02/16 15:31:55;;;;;;;6.50;2.60;;;20.60;40.40;;;;;;6308761;28;20333;-80
2024/02/16 15:34:56;;;;;;;5.82;2.70;;;20.60;40.50;;;;;;6296187;28;20028;-82
2024/02/16 15:37:57;;;;;;;4.40;2.30;;;20.70;40.60;;;;;;6311635;28;20115;-79